sensor_id;sensor_type;location;lat;lon;timestamp;pressure;altitude;pressure_sealevel;temperature;humidity
68859;BME280;55864;49.238;8.092;2023-03-04T00:01:43;100082.44;;;2.14;69.15
68859;BME280;55864;49.238;8.092;2023-03-04T00:03:44;100078.72;;;2.53;68.35
68859;BME280;55864;49.238;8.092;2023-03-04T00:05:45;100072.97;;;2.81;67.40
68859;BME280;55864;49.238;8.092;2023-03-04T00:07:45;100078.06;;;2.65;67.59
68859;BME280;55864;49.238;8.092;2023-03-04T00:09:46;100083.88;;;2.88;67.25
68859;BME280;55864;49.238;8.092;2023-03-04T00:11:46;100076.88;;;2.72;68.43
68859;BME280;55864;49.238;8.092;2023-03-04T00:13:47;100080.69;;;2.65;68.58
68859;BME280;55864;49.238;8.092;2023-03-04T00:15:47;100082.00;;;2.57;69.16
68859;BME280;55864;49.238;8.092;2023-03-04T00:17:49;100091.28;;;2.78;68.42
68859;BME280;55864;49.238;8.092;2023-03-04T00:19:50;100090.00;;;2.52;68.18
68859;BME280;55864;49.238;8.092;2023-03-04T00:21:50;100084.34;;;2.44;68.38
68859;BME280;55864;49.238;8.092;2023-03-04T00:23:51;100085.56;;;2.37;69.01
68859;BME280;55864;49.238;8.092;2023-03-04T00:25:51;100087.69;;;2.29;69.79
68859;BME280;55864;49.238;8.092;2023-03-04T00:27:52;100096.09;;;2.34;69.83
68859;BME280;55864;49.238;8.092;2023-03-04T00:29:52;100084.59;;;2.57;68.96
68859;BME280;55864;49.238;8.092;2023-03-04T00:31:53;100084.34;;;2.44;68.92
68859;BME280;55864;49.238;8.092;2023-03-04T00:33:55;100095.16;;;2.52;68.95
68859;BME280;55864;49.238;8.092;2023-03-04T00:35:55;100088.47;;;2.48;68.83
68859;BME280;55864;49.238;8.092;2023-03-04T00:37:56;100096.19;;;2.33;69.39
68859;BME280;55864;49.238;8.092;2023-03-04T00:39:56;100105.78;;;2.31;69.00
68859;BME280;55864;49.238;8.092;2023-03-04T00:41:57;100102.34;;;2.30;69.84
68859;BME280;55864;49.238;8.092;2023-03-04T00:43:58;100104.56;;;2.38;69.80
68859;BME280;55864;49.238;8.092;2023-03-04T00:45:58;100100.56;;;2.14;69.89
68859;BME280;55864;49.238;8.092;2023-03-04T00:47:59;100098.03;;;2.12;70.11
68859;BME280;55864;49.238;8.092;2023-03-04T00:50:01;100097.75;;;2.18;70.39
68859;BME280;55864;49.238;8.092;2023-03-04T00:52:01;100090.66;;;2.39;70.04
68859;BME280;55864;49.238;8.092;2023-03-04T00:54:02;100095.91;;;2.20;70.36
68859;BME280;55864;49.238;8.092;2023-03-04T00:56:04;100095.22;;;2.17;70.20
68859;BME280;55864;49.238;8.092;2023-03-04T00:58:04;100095.81;;;2.05;70.98
68859;BME280;55864;49.238;8.092;2023-03-04T01:00:06;100094.59;;;1.95;71.42
68859;BME280;55864;49.238;8.092;2023-03-04T01:02:07;100090.03;;;2.17;70.79
68859;BME280;55864;49.238;8.092;2023-03-04T01:04:07;100091.75;;;1.99;70.76
68859;BME280;55864;49.238;8.092;2023-03-04T01:06:10;100088.41;;;1.97;70.44
68859;BME280;55864;49.238;8.092;2023-03-04T01:08:10;100093.56;;;2.16;70.18
68859;BME280;55864;49.238;8.092;2023-03-04T01:10:12;100092.53;;;2.01;70.76
68859;BME280;55864;49.238;8.092;2023-03-04T01:12:15;100086.06;;;1.92;71.05
68859;BME280;55864;49.238;8.092;2023-03-04T01:14:16;100098.31;;;1.89;71.41
68859;BME280;55864;49.238;8.092;2023-03-04T01:16:17;100097.81;;;1.81;71.63
68859;BME280;55864;49.238;8.092;2023-03-04T01:18:18;100090.94;;;1.80;71.64
68859;BME280;55864;49.238;8.092;2023-03-04T01:20:18;100090.00;;;2.00;71.71
68859;BME280;55864;49.238;8.092;2023-03-04T01:22:20;100089.69;;;1.88;71.53
68859;BME280;55864;49.238;8.092;2023-03-04T01:24:21;100087.34;;;2.01;71.46
68859;BME280;55864;49.238;8.092;2023-03-04T01:26:22;100078.59;;;2.04;70.74
68859;BME280;55864;49.238;8.092;2023-03-04T01:28:22;100080.31;;;1.86;71.31
68859;BME280;55864;49.238;8.092;2023-03-04T01:30:23;100078.63;;;2.38;70.44
68859;BME280;55864;49.238;8.092;2023-03-04T01:32:24;100074.63;;;1.97;71.01
68859;BME280;55864;49.238;8.092;2023-03-04T01:34:24;100081.47;;;1.98;70.74
68859;BME280;55864;49.238;8.092;2023-03-04T01:36:25;100075.56;;;2.13;71.01
68859;BME280;55864;49.238;8.092;2023-03-04T01:38:27;100073.31;;;1.88;70.98
68859;BME280;55864;49.238;8.092;2023-03-04T01:40:27;100073.09;;;1.92;71.19
68859;BME280;55864;49.238;8.092;2023-03-04T01:42:31;100072.22;;;1.75;71.26
68859;BME280;55864;49.238;8.092;2023-03-04T01:44:33;100069.38;;;1.62;72.04
68859;BME280;55864;49.238;8.092;2023-03-04T01:46:34;100072.72;;;1.64;72.13
68859;BME280;55864;49.238;8.092;2023-03-04T01:48:36;100067.91;;;1.57;72.63
68859;BME280;55864;49.238;8.092;2023-03-04T01:50:37;100070.88;;;1.48;72.55
68859;BME280;55864;49.238;8.092;2023-03-04T01:52:39;100068.19;;;1.51;72.69
68859;BME280;55864;49.238;8.092;2023-03-04T01:54:41;100070.25;;;1.61;71.95
68859;BME280;55864;49.238;8.092;2023-03-04T01:56:44;100058.97;;;1.81;72.15
68859;BME280;55864;49.238;8.092;2023-03-04T01:59:06;100072.41;;;1.70;72.48
68859;BME280;55864;49.238;8.092;2023-03-04T02:01:09;100059.81;;;1.63;72.25
68859;BME280;55864;49.238;8.092;2023-03-04T02:03:14;100064.19;;;1.62;72.28
68859;BME280;55864;49.238;8.092;2023-03-04T02:05:15;100057.41;;;1.60;72.34
68859;BME280;55864;49.238;8.092;2023-03-04T02:07:16;100054.09;;;1.75;71.80
68859;BME280;55864;49.238;8.092;2023-03-04T02:09:18;100054.88;;;1.58;72.40
68859;BME280;55864;49.238;8.092;2023-03-04T02:11:20;100052.75;;;1.85;72.41
68859;BME280;55864;49.238;8.092;2023-03-04T02:13:21;100050.69;;;1.91;72.04
68859;BME280;55864;49.238;8.092;2023-03-04T02:15:22;100062.09;;;2.40;70.48
68859;BME280;55864;49.238;8.092;2023-03-04T02:17:24;100055.97;;;2.07;71.17
68859;BME280;55864;49.238;8.092;2023-03-04T02:19:39;100054.81;;;2.13;71.72
68859;BME280;55864;49.238;8.092;2023-03-04T02:21:42;100055.97;;;2.24;71.57
68859;BME280;55864;49.238;8.092;2023-03-04T02:23:45;100051.34;;;2.31;70.99
68859;BME280;55864;49.238;8.092;2023-03-04T02:25:51;100047.06;;;2.13;72.13
68859;BME280;55864;49.238;8.092;2023-03-04T02:27:56;100045.16;;;2.16;72.11
68859;BME280;55864;49.238;8.092;2023-03-04T02:29:56;100053.59;;;2.20;71.84
68859;BME280;55864;49.238;8.092;2023-03-04T02:31:57;100050.09;;;2.04;72.88
68859;BME280;55864;49.238;8.092;2023-03-04T02:33:59;100052.84;;;2.01;72.63
68859;BME280;55864;49.238;8.092;2023-03-04T02:36:00;100049.94;;;2.07;72.65
68859;BME280;55864;49.238;8.092;2023-03-04T02:38:01;100045.69;;;2.06;72.90
68859;BME280;55864;49.238;8.092;2023-03-04T02:40:03;100050.94;;;2.04;72.68
68859;BME280;55864;49.238;8.092;2023-03-04T02:42:05;100047.44;;;2.22;72.24
68859;BME280;55864;49.238;8.092;2023-03-04T02:44:15;100044.00;;;2.05;72.85
68859;BME280;55864;49.238;8.092;2023-03-04T02:46:16;100040.41;;;1.90;73.26
68859;BME280;55864;49.238;8.092;2023-03-04T02:48:18;100038.50;;;1.93;73.00
68859;BME280;55864;49.238;8.092;2023-03-04T02:50:19;100041.19;;;2.09;72.33
68859;BME280;55864;49.238;8.092;2023-03-04T02:52:24;100037.50;;;1.79;73.90
68859;BME280;55864;49.238;8.092;2023-03-04T02:54:25;100041.97;;;1.75;73.89
68859;BME280;55864;49.238;8.092;2023-03-04T02:56:26;100037.28;;;1.83;73.34
68859;BME280;55864;49.238;8.092;2023-03-04T02:58:26;100040.09;;;1.79;73.70
68859;BME280;55864;49.238;8.092;2023-03-04T03:00:28;100044.22;;;1.83;72.85
68859;BME280;55864;49.238;8.092;2023-03-04T03:02:29;100033.50;;;2.25;72.04
68859;BME280;55864;49.238;8.092;2023-03-04T03:04:30;100042.25;;;2.05;71.96
68859;BME280;55864;49.238;8.092;2023-03-04T03:06:31;100036.25;;;1.69;73.40
68859;BME280;55864;49.238;8.092;2023-03-04T03:08:32;100032.34;;;1.60;73.46
68859;BME280;55864;49.238;8.092;2023-03-04T03:10:35;100037.88;;;1.88;72.90
68859;BME280;55864;49.238;8.092;2023-03-04T03:12:44;100043.00;;;2.07;71.00
68859;BME280;55864;49.238;8.092;2023-03-04T03:14:45;100036.94;;;2.08;70.86
68859;BME280;55864;49.238;8.092;2023-03-04T03:16:49;100029.91;;;2.10;71.17
68859;BME280;55864;49.238;8.092;2023-03-04T03:18:50;100040.28;;;2.27;69.79
68859;BME280;55864;49.238;8.092;2023-03-04T03:20:50;100042.50;;;1.82;70.52
68859;BME280;55864;49.238;8.092;2023-03-04T03:22:51;100041.66;;;1.46;71.60
68859;BME280;55864;49.238;8.092;2023-03-04T03:24:51;100043.56;;;1.78;70.91
68859;BME280;55864;49.238;8.092;2023-03-04T03:26:52;100038.50;;;2.11;69.96
68859;BME280;55864;49.238;8.092;2023-03-04T03:28:52;100033.97;;;2.16;69.52
68859;BME280;55864;49.238;8.092;2023-03-04T03:30:54;100037.38;;;2.33;68.57
68859;BME280;55864;49.238;8.092;2023-03-04T03:32:56;100036.09;;;2.08;68.70
68859;BME280;55864;49.238;8.092;2023-03-04T03:34:57;100044.00;;;1.69;69.19
68859;BME280;55864;49.238;8.092;2023-03-04T03:36:58;100035.06;;;1.76;69.77
68859;BME280;55864;49.238;8.092;2023-03-04T03:38:58;100035.44;;;1.85;69.47
68859;BME280;55864;49.238;8.092;2023-03-04T03:40:59;100032.09;;;1.29;70.99
68859;BME280;55864;49.238;8.092;2023-03-04T03:42:59;100037.41;;;1.08;71.90
68859;BME280;55864;49.238;8.092;2023-03-04T03:45:00;100042.22;;;1.34;70.50
68859;BME280;55864;49.238;8.092;2023-03-04T03:47:00;100035.34;;;1.70;69.93
68859;BME280;55864;49.238;8.092;2023-03-04T03:49:02;100045.03;;;1.29;70.77
68859;BME280;55864;49.238;8.092;2023-03-04T03:51:03;100045.34;;;1.77;69.94
68859;BME280;55864;49.238;8.092;2023-03-04T03:53:04;100049.91;;;1.89;69.64
68859;BME280;55864;49.238;8.092;2023-03-04T03:55:05;100052.38;;;1.92;68.63
68859;BME280;55864;49.238;8.092;2023-03-04T03:57:06;100052.59;;;1.88;69.13
68859;BME280;55864;49.238;8.092;2023-03-04T03:59:06;100047.25;;;1.74;68.76
68859;BME280;55864;49.238;8.092;2023-03-04T04:01:07;100043.25;;;1.67;70.17
68859;BME280;55864;49.238;8.092;2023-03-04T04:03:10;100049.03;;;1.90;68.58
68859;BME280;55864;49.238;8.092;2023-03-04T04:05:15;100054.19;;;1.36;70.35
68859;BME280;55864;49.238;8.092;2023-03-04T04:07:15;100051.81;;;1.50;70.25
68859;BME280;55864;49.238;8.092;2023-03-04T04:09:16;100043.47;;;1.62;69.62
68859;BME280;55864;49.238;8.092;2023-03-04T04:11:17;100051.97;;;1.83;68.58
68859;BME280;55864;49.238;8.092;2023-03-04T04:13:17;100056.47;;;1.42;69.83
68859;BME280;55864;49.238;8.092;2023-03-04T04:15:18;100056.41;;;1.62;69.82
68859;BME280;55864;49.238;8.092;2023-03-04T04:17:19;100058.88;;;1.28;70.49
68859;BME280;55864;49.238;8.092;2023-03-04T04:19:20;100061.81;;;1.02;71.89
68859;BME280;55864;49.238;8.092;2023-03-04T04:21:22;100056.19;;;0.92;73.10
68859;BME280;55864;49.238;8.092;2023-03-04T04:23:22;100053.41;;;1.16;72.76
68859;BME280;55864;49.238;8.092;2023-03-04T04:25:23;100054.31;;;1.52;70.88
68859;BME280;55864;49.238;8.092;2023-03-04T04:27:24;100052.25;;;1.23;71.74
68859;BME280;55864;49.238;8.092;2023-03-04T04:29:24;100047.72;;;1.63;70.72
68859;BME280;55864;49.238;8.092;2023-03-04T04:31:25;100048.22;;;1.16;72.33
68859;BME280;55864;49.238;8.092;2023-03-04T04:33:25;100053.28;;;1.37;71.15
68859;BME280;55864;49.238;8.092;2023-03-04T04:35:26;100047.19;;;1.57;70.07
68859;BME280;55864;49.238;8.092;2023-03-04T04:37:28;100055.22;;;1.69;69.03
68859;BME280;55864;49.238;8.092;2023-03-04T04:39:28;100060.19;;;1.37;69.78
68859;BME280;55864;49.238;8.092;2023-03-04T04:41:32;100052.63;;;1.69;69.25
68859;BME280;55864;49.238;8.092;2023-03-04T04:43:34;100054.25;;;1.16;70.06
68859;BME280;55864;49.238;8.092;2023-03-04T04:45:34;100058.09;;;1.45;69.73
68859;BME280;55864;49.238;8.092;2023-03-04T04:47:35;100061.59;;;1.25;70.08
68859;BME280;55864;49.238;8.092;2023-03-04T04:49:35;100049.47;;;1.63;68.95
68859;BME280;55864;49.238;8.092;2023-03-04T04:51:37;100057.41;;;1.41;69.60
68859;BME280;55864;49.238;8.092;2023-03-04T04:53:39;100060.34;;;1.34;70.12
68859;BME280;55864;49.238;8.092;2023-03-04T04:55:39;100054.72;;;1.61;67.99
68859;BME280;55864;49.238;8.092;2023-03-04T04:57:40;100060.19;;;1.55;67.83
68859;BME280;55864;49.238;8.092;2023-03-04T04:59:41;100059.22;;;1.39;68.08
68859;BME280;55864;49.238;8.092;2023-03-04T05:01:41;100052.78;;;1.29;67.74
68859;BME280;55864;49.238;8.092;2023-03-04T05:03:42;100059.66;;;1.49;66.91
68859;BME280;55864;49.238;8.092;2023-03-04T05:05:42;100066.38;;;1.53;66.53
68859;BME280;55864;49.238;8.092;2023-03-04T05:07:43;100062.31;;;1.47;66.92
68859;BME280;55864;49.238;8.092;2023-03-04T05:09:45;100060.97;;;1.39;67.05
68859;BME280;55864;49.238;8.092;2023-03-04T05:11:45;100072.09;;;1.41;66.86
68859;BME280;55864;49.238;8.092;2023-03-04T05:13:47;100060.78;;;1.43;67.09
68859;BME280;55864;49.238;8.092;2023-03-04T05:15:49;100061.31;;;1.50;67.19
68859;BME280;55864;49.238;8.092;2023-03-04T05:17:50;100068.72;;;1.39;67.67
68859;BME280;55864;49.238;8.092;2023-03-04T05:19:50;100056.91;;;1.33;67.48
68859;BME280;55864;49.238;8.092;2023-03-04T05:21:51;100057.41;;;1.41;67.43
68859;BME280;55864;49.238;8.092;2023-03-04T05:23:51;100062.16;;;1.32;67.98
68859;BME280;55864;49.238;8.092;2023-03-04T05:25:53;100057.88;;;1.31;68.35
68859;BME280;55864;49.238;8.092;2023-03-04T05:27:54;100053.69;;;1.47;66.67
68859;BME280;55864;49.238;8.092;2023-03-04T05:29:55;100055.72;;;1.59;67.00
68859;BME280;55864;49.238;8.092;2023-03-04T05:31:55;100061.88;;;1.38;67.73
68859;BME280;55864;49.238;8.092;2023-03-04T05:33:56;100062.78;;;1.55;66.92
68859;BME280;55864;49.238;8.092;2023-03-04T05:35:56;100058.66;;;1.70;66.59
68859;BME280;55864;49.238;8.092;2023-03-04T05:37:57;100055.97;;;1.71;66.63
68859;BME280;55864;49.238;8.092;2023-03-04T05:39:58;100057.75;;;1.52;67.05
68859;BME280;55864;49.238;8.092;2023-03-04T05:42:00;100060.22;;;1.72;66.43
68859;BME280;55864;49.238;8.092;2023-03-04T05:44:01;100058.66;;;1.33;67.58
68859;BME280;55864;49.238;8.092;2023-03-04T05:46:02;100057.94;;;1.11;69.18
68859;BME280;55864;49.238;8.092;2023-03-04T05:48:04;100059.34;;;1.18;69.02
68859;BME280;55864;49.238;8.092;2023-03-04T05:50:07;100066.84;;;1.61;66.78
68859;BME280;55864;49.238;8.092;2023-03-04T05:52:07;100069.00;;;1.70;66.01
68859;BME280;55864;49.238;8.092;2023-03-04T05:54:08;100064.97;;;1.64;66.74
68859;BME280;55864;49.238;8.092;2023-03-04T05:56:09;100065.78;;;1.65;66.36
68859;BME280;55864;49.238;8.092;2023-03-04T05:58:11;100063.06;;;1.68;66.15
68859;BME280;55864;49.238;8.092;2023-03-04T06:00:14;100067.19;;;1.72;65.66
68859;BME280;55864;49.238;8.092;2023-03-04T06:02:16;100073.91;;;1.39;67.08
68859;BME280;55864;49.238;8.092;2023-03-04T06:04:17;100078.66;;;1.66;65.66
68859;BME280;55864;49.238;8.092;2023-03-04T06:06:18;100073.50;;;1.66;65.69
68859;BME280;55864;49.238;8.092;2023-03-04T06:08:18;100078.34;;;1.72;65.90
68859;BME280;55864;49.238;8.092;2023-03-04T06:10:19;100078.72;;;1.65;66.27
68859;BME280;55864;49.238;8.092;2023-03-04T06:12:19;100087.13;;;1.70;65.74
68859;BME280;55864;49.238;8.092;2023-03-04T06:14:21;100075.78;;;1.72;65.58
68859;BME280;55864;49.238;8.092;2023-03-04T06:16:22;100080.34;;;1.67;65.62
68859;BME280;55864;49.238;8.092;2023-03-04T06:18:23;100088.19;;;1.66;66.36
68859;BME280;55864;49.238;8.092;2023-03-04T06:20:24;100083.41;;;1.75;65.72
68859;BME280;55864;49.238;8.092;2023-03-04T06:22:25;100085.25;;;1.55;66.48
68859;BME280;55864;49.238;8.092;2023-03-04T06:24:25;100087.38;;;1.82;66.37
68859;BME280;55864;49.238;8.092;2023-03-04T06:26:26;100088.63;;;1.92;66.49
68859;BME280;55864;49.238;8.092;2023-03-04T06:28:27;100092.06;;;1.93;66.11
68859;BME280;55864;49.238;8.092;2023-03-04T06:30:29;100096.50;;;1.91;66.35
68859;BME280;55864;49.238;8.092;2023-03-04T06:32:29;100095.28;;;1.98;66.59
68859;BME280;55864;49.238;8.092;2023-03-04T06:34:30;100096.50;;;1.91;66.04
68859;BME280;55864;49.238;8.092;2023-03-04T06:36:31;100103.03;;;1.98;66.18
68859;BME280;55864;49.238;8.092;2023-03-04T06:38:31;100100.16;;;2.04;66.51
68859;BME280;55864;49.238;8.092;2023-03-04T06:40:32;100095.03;;;2.03;65.92
68859;BME280;55864;49.238;8.092;2023-03-04T06:42:32;100110.66;;;2.01;66.13
68859;BME280;55864;49.238;8.092;2023-03-04T06:44:33;100108.50;;;1.92;66.97
68859;BME280;55864;49.238;8.092;2023-03-04T06:46:35;100107.00;;;2.05;66.04
68859;BME280;55864;49.238;8.092;2023-03-04T06:48:36;100110.13;;;1.95;66.68
68859;BME280;55864;49.238;8.092;2023-03-04T06:50:38;100109.44;;;1.91;66.35
68859;BME280;55864;49.238;8.092;2023-03-04T06:52:39;100111.50;;;2.02;66.77
68859;BME280;55864;49.238;8.092;2023-03-04T06:54:39;100111.25;;;1.89;67.46
68859;BME280;55864;49.238;8.092;2023-03-04T06:56:40;100113.34;;;2.00;66.87
68859;BME280;55864;49.238;8.092;2023-03-04T06:58:41;100115.63;;;2.06;66.29
68859;BME280;55864;49.238;8.092;2023-03-04T07:00:41;100117.28;;;2.07;66.87
68859;BME280;55864;49.238;8.092;2023-03-04T07:02:43;100119.59;;;2.13;66.12
68859;BME280;55864;49.238;8.092;2023-03-04T07:04:44;100126.75;;;2.08;66.38
68859;BME280;55864;49.238;8.092;2023-03-04T07:06:44;100118.91;;;2.09;66.93
68859;BME280;55864;49.238;8.092;2023-03-04T07:08:46;100119.59;;;2.13;66.70
68859;BME280;55864;49.238;8.092;2023-03-04T07:10:48;100124.72;;;2.14;66.69
68859;BME280;55864;49.238;8.092;2023-03-04T07:12:48;100127.00;;;2.20;66.81
68859;BME280;55864;49.238;8.092;2023-03-04T07:14:49;100124.41;;;2.20;66.50
68859;BME280;55864;49.238;8.092;2023-03-04T07:16:49;100126.41;;;2.15;67.52
68859;BME280;55864;49.238;8.092;2023-03-04T07:18:51;100125.19;;;2.22;67.35
68859;BME280;55864;49.238;8.092;2023-03-04T07:20:52;100129.09;;;2.31;66.84
68859;BME280;55864;49.238;8.092;2023-03-04T07:22:53;100132.84;;;2.07;68.67
68859;BME280;55864;49.238;8.092;2023-03-04T07:24:54;100132.19;;;2.20;68.51
68859;BME280;55864;49.238;8.092;2023-03-04T07:26:54;100140.06;;;2.36;68.13
68859;BME280;55864;49.238;8.092;2023-03-04T07:28:55;100139.31;;;2.34;68.71
68859;BME280;55864;49.238;8.092;2023-03-04T07:30:55;100138.63;;;2.30;68.93
68859;BME280;55864;49.238;8.092;2023-03-04T07:32:56;100143.06;;;2.45;68.36
68859;BME280;55864;49.238;8.092;2023-03-04T07:34:58;100141.28;;;2.29;69.64
68859;BME280;55864;49.238;8.092;2023-03-04T07:36:58;100144.88;;;2.43;68.97
68859;BME280;55864;49.238;8.092;2023-03-04T07:38:59;100148.09;;;2.48;69.41
68859;BME280;55864;49.238;8.092;2023-03-04T07:40:59;100150.59;;;2.67;68.69
68859;BME280;55864;49.238;8.092;2023-03-04T07:43:00;100144.53;;;2.68;69.54
68859;BME280;55864;49.238;8.092;2023-03-04T07:45:02;100150.84;;;2.62;69.93
68859;BME280;55864;49.238;8.092;2023-03-04T07:47:02;100153.19;;;2.67;69.93
68859;BME280;55864;49.238;8.092;2023-03-04T07:49:03;100159.72;;;2.75;69.96
68859;BME280;55864;49.238;8.092;2023-03-04T07:51:08;100152.97;;;2.88;69.02
68859;BME280;55864;49.238;8.092;2023-03-04T07:53:09;100158.78;;;2.94;69.38
68859;BME280;55864;49.238;8.092;2023-03-04T07:55:11;100154.69;;;2.90;70.07
68859;BME280;55864;49.238;8.092;2023-03-04T07:57:12;100152.69;;;2.77;70.41
68859;BME280;55864;49.238;8.092;2023-03-04T07:59:13;100156.19;;;2.94;69.68
68859;BME280;55864;49.238;8.092;2023-03-04T08:01:15;100162.81;;;2.99;69.57
68859;BME280;55864;49.238;8.092;2023-03-04T08:03:16;100160.00;;;3.04;69.78
68859;BME280;55864;49.238;8.092;2023-03-04T08:05:17;100164.88;;;3.10;69.03
68859;BME280;55864;49.238;8.092;2023-03-04T08:07:18;100162.78;;;3.16;68.80
68859;BME280;55864;49.238;8.092;2023-03-04T08:09:19;100162.34;;;3.25;68.34
68859;BME280;55864;49.238;8.092;2023-03-04T08:11:20;100162.28;;;3.10;69.23
68859;BME280;55864;49.238;8.092;2023-03-04T08:13:21;100167.53;;;3.25;68.13
68859;BME280;55864;49.238;8.092;2023-03-04T08:15:21;100159.28;;;3.17;68.99
68859;BME280;55864;49.238;8.092;2023-03-04T08:17:22;100158.69;;;3.29;68.33
68859;BME280;55864;49.238;8.092;2023-03-04T08:19:22;100165.69;;;3.27;69.20
68859;BME280;55864;49.238;8.092;2023-03-04T08:21:23;100162.34;;;3.25;69.01
68859;BME280;55864;49.238;8.092;2023-03-04T08:23:26;100166.22;;;3.17;69.39
68859;BME280;55864;49.238;8.092;2023-03-04T08:25:26;100168.22;;;3.12;69.48
68859;BME280;55864;49.238;8.092;2023-03-04T08:27:27;100163.28;;;3.07;69.93
68859;BME280;55864;49.238;8.092;2023-03-04T08:29:27;100164.78;;;3.11;69.39
68859;BME280;55864;49.238;8.092;2023-03-04T08:31:28;100160.53;;;3.10;70.19
68859;BME280;55864;49.238;8.092;2023-03-04T08:33:29;100165.63;;;3.12;69.87
68859;BME280;55864;49.238;8.092;2023-03-04T08:35:30;100166.59;;;3.26;69.35
68859;BME280;55864;49.238;8.092;2023-03-04T08:37:31;100164.97;;;3.41;68.98
68859;BME280;55864;49.238;8.092;2023-03-04T08:39:33;100163.44;;;3.54;68.60
68859;BME280;55864;49.238;8.092;2023-03-04T08:41:33;100162.41;;;3.56;68.05
68859;BME280;55864;49.238;8.092;2023-03-04T08:43:34;100168.13;;;3.63;68.31
68859;BME280;55864;49.238;8.092;2023-03-04T08:45:35;100156.66;;;3.67;67.97
68859;BME280;55864;49.238;8.092;2023-03-04T08:47:36;100159.25;;;3.67;66.96
68859;BME280;55864;49.238;8.092;2023-03-04T08:49:36;100161.75;;;3.68;67.54
68859;BME280;55864;49.238;8.092;2023-03-04T08:51:37;100152.63;;;3.77;67.66
68859;BME280;55864;49.238;8.092;2023-03-04T08:53:38;100157.59;;;3.81;66.69
68859;BME280;55864;49.238;8.092;2023-03-04T08:55:40;100154.75;;;3.86;66.40
68859;BME280;55864;49.238;8.092;2023-03-04T08:57:41;100153.81;;;3.87;67.11
68859;BME280;55864;49.238;8.092;2023-03-04T08:59:42;100150.13;;;3.91;66.35
68859;BME280;55864;49.238;8.092;2023-03-04T09:01:43;100149.81;;;3.97;66.68
68859;BME280;55864;49.238;8.092;2023-03-04T09:03:43;100151.56;;;3.97;66.18
68859;BME280;55864;49.238;8.092;2023-03-04T09:05:44;100154.63;;;4.03;67.59
68859;BME280;55864;49.238;8.092;2023-03-04T09:07:45;100151.97;;;4.05;67.03
68859;BME280;55864;49.238;8.092;2023-03-04T09:09:46;100154.41;;;4.08;66.75
68859;BME280;55864;49.238;8.092;2023-03-04T09:11:48;100144.84;;;4.08;66.54
68859;BME280;55864;49.238;8.092;2023-03-04T09:13:48;100149.19;;;4.08;66.23
68859;BME280;55864;49.238;8.092;2023-03-04T09:15:50;100143.81;;;4.11;65.50
68859;BME280;55864;49.238;8.092;2023-03-04T09:17:51;100147.94;;;4.15;65.58
68859;BME280;55864;49.238;8.092;2023-03-04T09:19:51;100142.06;;;4.11;66.54
68859;BME280;55864;49.238;8.092;2023-03-04T09:21:52;100142.34;;;4.07;65.17
68859;BME280;55864;49.238;8.092;2023-03-04T09:23:53;100146.19;;;4.15;65.83
68859;BME280;55864;49.238;8.092;2023-03-04T09:25:53;100146.03;;;4.18;66.46
68859;BME280;55864;49.238;8.092;2023-03-04T09:27:55;100151.88;;;4.22;66.67
68859;BME280;55864;49.238;8.092;2023-03-04T09:29:56;100154.41;;;4.23;66.21
68859;BME280;55864;49.238;8.092;2023-03-04T09:31:56;100156.66;;;4.29;65.13
68859;BME280;55864;49.238;8.092;2023-03-04T09:33:58;100157.31;;;4.33;65.33
68859;BME280;55864;49.238;8.092;2023-03-04T09:35:58;100153.13;;;4.30;65.73
68859;BME280;55864;49.238;8.092;2023-03-04T09:37:59;100158.31;;;4.30;65.45
68859;BME280;55864;49.238;8.092;2023-03-04T09:40:00;100160.44;;;4.24;65.01
68859;BME280;55864;49.238;8.092;2023-03-04T09:42:01;100175.09;;;4.25;65.51
68859;BME280;55864;49.238;8.092;2023-03-04T09:44:09;100168.72;;;4.30;66.29
68859;BME280;55864;49.238;8.092;2023-03-04T09:46:15;100168.91;;;4.27;66.25
68859;BME280;55864;49.238;8.092;2023-03-04T09:48:21;100179.31;;;4.27;65.53
68859;BME280;55864;49.238;8.092;2023-03-04T09:50:23;100173.91;;;4.30;64.77
68859;BME280;55864;49.238;8.092;2023-03-04T09:52:32;100178.22;;;4.31;65.04
68859;BME280;55864;49.238;8.092;2023-03-04T09:55:00;100184.31;;;4.30;65.16
68859;BME280;55864;49.238;8.092;2023-03-04T09:57:17;100177.53;;;4.28;65.78
68859;BME280;55864;49.238;8.092;2023-03-04T09:59:24;100176.53;;;4.30;66.34
68859;BME280;55864;49.238;8.092;2023-03-04T10:01:29;100176.53;;;4.30;65.06
68859;BME280;55864;49.238;8.092;2023-03-04T10:03:40;100182.47;;;4.32;65.86
68859;BME280;55864;49.238;8.092;2023-03-04T10:05:48;100181.38;;;4.36;64.93
68859;BME280;55864;49.238;8.092;2023-03-04T10:07:55;100179.13;;;4.30;65.12
68859;BME280;55864;49.238;8.092;2023-03-04T10:10:02;100176.19;;;4.36;65.02
68859;BME280;55864;49.238;8.092;2023-03-04T10:12:05;100181.28;;;4.38;64.78
68859;BME280;55864;49.238;8.092;2023-03-04T10:14:29;100180.50;;;4.22;65.36
68859;BME280;55864;49.238;8.092;2023-03-04T10:16:36;100178.78;;;4.21;65.58
68859;BME280;55864;49.238;8.092;2023-03-04T10:18:43;100183.56;;;4.28;65.21
68859;BME280;55864;49.238;8.092;2023-03-04T10:20:53;100183.41;;;4.31;66.83
68859;BME280;55864;49.238;8.092;2023-03-04T10:22:57;100176.38;;;4.33;65.77
68859;BME280;55864;49.238;8.092;2023-03-04T10:25:09;100183.81;;;4.39;65.20
68859;BME280;55864;49.238;8.092;2023-03-04T10:27:16;100176.75;;;4.41;65.60
68859;BME280;55864;49.238;8.092;2023-03-04T10:29:19;100176.66;;;4.43;65.75
68859;BME280;55864;49.238;8.092;2023-03-04T10:31:30;100180.03;;;4.45;65.32
68859;BME280;55864;49.238;8.092;2023-03-04T10:33:33;100176.25;;;4.50;65.26
68859;BME280;55864;49.238;8.092;2023-03-04T10:35:35;100170.13;;;4.51;65.78
68859;BME280;55864;49.238;8.092;2023-03-04T10:37:44;100172.38;;;4.57;64.96
68859;BME280;55864;49.238;8.092;2023-03-04T10:39:46;100165.75;;;4.52;64.68
68859;BME280;55864;49.238;8.092;2023-03-04T10:41:57;100170.53;;;4.59;65.23
68859;BME280;55864;49.238;8.092;2023-03-04T10:44:03;100170.78;;;4.55;65.03
68859;BME280;55864;49.238;8.092;2023-03-04T10:46:05;100168.09;;;4.56;65.51